createdAt,value
2019-01-31T00:01:20.477Z,84.43
2019-01-31T00:04:35.817Z,87.40
2019-01-31T00:07:44.654Z,88.80
2019-01-31T00:10:49.622Z,88.80
2019-01-31T00:13:43.114Z,85.87
2019-01-31T00:16:45.359Z,81.70
2019-01-31T00:19:27.756Z,90.63
2019-01-31T00:22:32.469Z,89.93
2019-01-31T00:25:17.512Z,89.93
2019-01-31T00:28:20.022Z,86.87
2019-01-31T00:31:01.668Z,85.57
2019-01-31T00:34:02.374Z,92.90
2019-01-31T00:37:06.967Z,86.53
2019-01-31T00:40:03.807Z,91.90
2019-01-31T00:43:19.016Z,88.90
2019-01-31T00:46:00.219Z,85.00
2019-01-31T00:49:12.867Z,95.80
2019-01-31T00:52:30.389Z,86.47
2019-01-31T00:55:28.368Z,92.87
2019-01-31T00:58:18.593Z,87.77
2019-01-31T01:01:05.657Z,85.17
2019-01-31T01:04:15.709Z,82.73
2019-01-31T01:07:23.166Z,87.23
2019-01-31T01:10:18.282Z,85.33
2019-01-31T01:13:17.634Z,81.67
2019-01-31T01:16:03.693Z,85.70
2019-01-31T01:18:55.676Z,81.87
2019-01-31T01:21:50.869Z,77.43
2019-01-31T01:24:59.367Z,89.53
2019-01-31T01:27:55.578Z,88.07
2019-01-31T01:30:49.277Z,84.40
2019-01-31T01:33:31.876Z,87.20
2019-01-31T01:36:11.700Z,81.07
2019-01-31T01:39:25.768Z,85.37
2019-01-31T01:42:35.269Z,84.87
2019-01-31T01:45:41.909Z,74.30
2019-01-31T01:48:49.052Z,90.23
2019-01-31T01:51:52.124Z,81.53
2019-01-31T01:55:12.393Z,84.30
2019-01-31T01:58:03.215Z,86.03
2019-01-31T02:01:08.424Z,91.13
2019-01-31T02:04:06.488Z,85.27
2019-01-31T02:07:12.421Z,92.20
2019-01-31T02:10:23.123Z,84.03
2019-01-31T02:13:34.350Z,92.70
2019-01-31T02:16:51.851Z,90.03
2019-01-31T02:19:58.374Z,87.80
2019-01-31T02:23:09.481Z,91.40
2019-01-31T02:26:15.638Z,90.73
2019-01-31T02:29:25.022Z,94.53
2019-01-31T02:32:25.463Z,92.60
2019-01-31T02:35:25.215Z,89.87
2019-01-31T02:38:16.965Z,86.03
2019-01-31T02:41:29.890Z,87.70
2019-01-31T02:44:31.400Z,81.20
2019-01-31T02:47:34.019Z,96.10
2019-01-31T02:50:35.559Z,85.47
2019-01-31T02:53:29.955Z,88.43
2019-01-31T02:56:19.870Z,89.30
2019-01-31T02:59:18.308Z,86.17
2019-01-31T03:02:17.435Z,90.40
2019-01-31T03:05:19.200Z,86.07
2019-01-31T03:08:35.274Z,93.57
2019-01-31T03:11:42.824Z,87.50
2019-01-31T03:14:36.023Z,91.27
2019-01-31T03:17:49.582Z,89.27
2019-01-31T03:20:50.653Z,86.03
2019-01-31T03:24:05.088Z,87.40
2019-01-31T03:27:00.690Z,94.70
2019-01-31T03:29:57.619Z,85.50
2019-01-31T03:33:05.807Z,91.90
2019-01-31T03:36:31.152Z,92.87
2019-01-31T03:39:24.483Z,91.63
2019-01-31T03:42:22.709Z,94.83
2019-01-31T03:45:30.986Z,88.77
2019-01-31T03:48:42.457Z,87.73
2019-01-31T03:52:02.974Z,89.07
2019-01-31T03:54:57.730Z,86.40
2019-01-31T03:58:23.930Z,87.80
2019-01-31T04:01:33.989Z,87.80
2019-01-31T04:04:16.053Z,82.93
2019-01-31T04:06:46.128Z,82.13
2019-01-31T04:09:16.286Z,83.47
2019-01-31T04:11:48.251Z,90.23
2019-01-31T04:14:18.680Z,87.60
2019-01-31T04:16:48.757Z,76.80
2019-01-31T04:19:19.302Z,85.80
2019-01-31T04:21:49.368Z,86.20
2019-01-31T04:24:39.148Z,81.50
2019-01-31T04:27:09.187Z,89.07
2019-01-31T04:29:39.247Z,81.83
2019-01-31T04:32:09.300Z,86.30
2019-01-31T04:34:39.348Z,85.53
2019-01-31T04:37:09.427Z,89.27
2019-01-31T04:39:40.050Z,81.10
2019-01-31T04:42:10.100Z,87.00
2019-01-31T04:44:40.158Z,80.70
2019-01-31T04:47:11.221Z,77.33
2019-01-31T04:49:41.543Z,80.20
2019-01-31T04:52:11.628Z,85.70
2019-01-31T04:54:42.929Z,82.77
2019-01-31T04:57:13.017Z,86.87
2019-01-31T04:59:43.062Z,85.47
2019-01-31T05:02:13.118Z,79.37
2019-01-31T05:04:43.768Z,77.40
2019-01-31T05:07:13.919Z,81.83
2019-01-31T05:09:44.441Z,85.60
2019-01-31T05:12:14.504Z,71.40
2019-01-31T05:14:44.721Z,74.13
2019-01-31T05:17:15.263Z,76.83
2019-01-31T05:19:45.514Z,82.67
2019-01-31T05:22:15.615Z,83.50
2019-01-31T05:24:45.694Z,81.17
2019-01-31T05:27:15.937Z,80.57
2019-01-31T05:29:46.031Z,81.03
2019-01-31T05:32:16.190Z,79.57
2019-01-31T05:34:46.460Z,78.83
2019-01-31T05:37:16.561Z,81.27
2019-01-31T05:39:46.672Z,80.70
2019-01-31T05:42:16.777Z,86.50
2019-01-31T05:44:46.859Z,82.33
2019-01-31T05:47:16.964Z,88.63
2019-01-31T05:49:47.176Z,81.83
2019-01-31T05:52:17.280Z,85.23
2019-01-31T05:54:47.499Z,86.33
2019-01-31T05:57:17.585Z,81.47
2019-01-31T05:59:47.636Z,81.03
2019-01-31T06:02:17.874Z,75.67
2019-01-31T06:04:48.236Z,83.50
2019-01-31T06:07:18.804Z,80.03
2019-01-31T06:09:48.845Z,78.93
2019-01-31T06:12:18.993Z,86.43
2019-01-31T06:14:49.037Z,82.57
2019-01-31T06:17:19.079Z,79.53
2019-01-31T06:19:51.305Z,83.40
2019-01-31T06:22:21.688Z,79.03
2019-01-31T06:24:51.743Z,79.53
2019-01-31T06:27:21.960Z,85.63
2019-01-31T06:29:52.080Z,82.00
2019-01-31T06:32:22.224Z,88.83
2019-01-31T06:34:52.290Z,81.90
2019-01-31T06:37:22.802Z,82.43
2019-01-31T06:39:52.877Z,81.13
2019-01-31T06:42:23.086Z,81.03
2019-01-31T06:44:53.146Z,79.70
2019-01-31T06:47:24.495Z,79.23
2019-01-31T06:49:54.554Z,79.20
2019-01-31T06:52:24.822Z,81.10
2019-01-31T06:54:54.902Z,79.77
2019-01-31T06:57:24.963Z,78.03
2019-01-31T06:59:55.106Z,76.07
2019-01-31T07:02:25.231Z,89.27
2019-01-31T07:04:55.298Z,76.53
2019-01-31T07:07:25.386Z,76.53
2019-01-31T07:09:55.488Z,76.03
2019-01-31T07:12:25.551Z,78.87
2019-01-31T07:14:55.593Z,86.50
2019-01-31T07:17:25.664Z,78.40
2019-01-31T07:19:56.619Z,73.40
2019-01-31T07:22:26.773Z,80.57
2019-01-31T07:24:56.848Z,75.27
2019-01-31T07:27:27.083Z,87.60
2019-01-31T07:29:57.140Z,80.33
2019-01-31T07:32:27.335Z,81.43
2019-01-31T07:34:57.404Z,77.93
2019-01-31T07:37:27.603Z,75.10
2019-01-31T07:39:57.686Z,77.93
2019-01-31T07:42:27.775Z,79.33
2019-01-31T07:44:57.821Z,83.13
2019-01-31T07:47:27.911Z,79.27
2019-01-31T07:49:57.999Z,76.37
2019-01-31T07:52:28.093Z,78.97
2019-01-31T07:54:58.128Z,71.47
2019-01-31T07:57:28.206Z,79.27
2019-01-31T07:59:58.293Z,82.50
2019-01-31T08:02:28.328Z,81.43
2019-01-31T08:04:58.445Z,83.03
2019-01-31T08:07:29.457Z,73.47
2019-01-31T08:09:59.513Z,73.17
2019-01-31T08:12:29.552Z,75.83
2019-01-31T08:14:59.638Z,75.77
2019-01-31T08:17:29.706Z,84.83
2019-01-31T08:19:59.779Z,74.00
2019-01-31T08:22:29.826Z,73.47
2019-01-31T08:24:59.911Z,150.43
2019-01-31T08:27:29.975Z,147.10
2019-01-31T08:30:00.050Z,110.87
2019-01-31T08:32:30.195Z,127.07
2019-01-31T08:35:00.337Z,88.30
2019-01-31T08:37:30.444Z,143.73
2019-01-31T08:40:00.479Z,77.43
2019-01-31T08:42:30.559Z,79.33
2019-01-31T08:45:00.629Z,82.90
2019-01-31T08:47:30.679Z,85.87
2019-01-31T08:50:00.723Z,76.37
2019-01-31T08:52:30.792Z,94.97
2019-01-31T08:55:00.859Z,73.67
2019-01-31T08:57:31.057Z,71.67
2019-01-31T09:00:01.142Z,71.70
2019-01-31T09:02:34.153Z,73.37
2019-01-31T09:05:05.379Z,73.47
2019-01-31T09:07:35.412Z,71.67
2019-01-31T09:10:07.350Z,77.43
2019-01-31T09:12:37.598Z,68.50
2019-01-31T09:15:07.688Z,76.63
2019-01-31T09:17:37.756Z,68.83
2019-01-31T09:20:10.714Z,75.73
2019-01-31T09:22:58.499Z,73.73
2019-01-31T09:26:20.608Z,72.70
2019-01-31T09:29:16.357Z,72.10
2019-01-31T09:32:18.907Z,76.97
2019-01-31T09:35:17.313Z,79.40
2019-01-31T09:38:36.715Z,68.43
2019-01-31T09:41:49.183Z,66.33
2019-01-31T09:44:51.346Z,71.93
2019-01-31T09:47:41.602Z,71.30
2019-01-31T09:50:22.802Z,74.13
2019-01-31T09:53:18.977Z,79.70
2019-01-31T09:56:21.766Z,73.53
2019-01-31T09:59:57.418Z,79.57
2019-01-31T10:03:08.343Z,67.77
2019-01-31T10:06:20.077Z,73.30
2019-01-31T10:09:30.816Z,65.83
2019-01-31T10:12:38.556Z,69.97
2019-01-31T10:15:45.698Z,74.97
2019-01-31T10:18:47.037Z,74.27
2019-01-31T10:22:13.895Z,75.00
2019-01-31T10:25:22.437Z,68.30
2019-01-31T10:28:35.642Z,66.30
2019-01-31T10:31:45.449Z,76.90
2019-01-31T10:34:48.790Z,74.60
2019-01-31T10:38:11.900Z,74.93
2019-01-31T10:41:11.699Z,69.33
2019-01-31T10:44:23.003Z,67.87
2019-01-31T10:47:18.704Z,63.53
2019-01-31T10:50:25.670Z,63.50
2019-01-31T10:53:36.203Z,69.67
2019-01-31T10:56:32.434Z,72.33
2019-01-31T10:59:30.705Z,66.70
2019-01-31T11:02:36.175Z,71.73
2019-01-31T11:05:32.864Z,66.57
2019-01-31T11:09:05.140Z,75.33
2019-01-31T11:12:31.705Z,67.57
2019-01-31T11:15:46.135Z,66.37
2019-01-31T11:19:12.617Z,82.90
2019-01-31T11:22:34.571Z,66.07
2019-01-31T11:25:54.677Z,67.47
2019-01-31T11:29:10.371Z,67.60
2019-01-31T11:32:06.780Z,71.47
2019-01-31T11:35:30.180Z,62.13
2019-01-31T11:38:47.049Z,68.30
2019-01-31T11:41:54.029Z,66.50
2019-01-31T11:45:03.987Z,62.57
2019-01-31T11:48:14.055Z,63.67
2019-01-31T11:51:31.268Z,59.80
2019-01-31T11:54:42.498Z,66.00
2019-01-31T11:57:53.520Z,74.57
2019-01-31T12:00:25.341Z,64.77
2019-01-31T12:02:55.464Z,63.67
2019-01-31T12:05:25.632Z,63.83
2019-01-31T12:07:55.726Z,66.10
2019-01-31T12:10:25.891Z,61.97
2019-01-31T12:12:55.995Z,68.17
2019-01-31T12:15:26.068Z,60.07
2019-01-31T12:17:56.187Z,69.77
2019-01-31T12:20:26.226Z,60.87
2019-01-31T12:22:56.251Z,64.77
2019-01-31T12:25:26.499Z,58.03
2019-01-31T12:27:56.561Z,60.80
2019-01-31T12:30:28.872Z,57.93
2019-01-31T12:33:00.607Z,61.23
2019-01-31T12:35:30.630Z,61.80
2019-01-31T12:38:00.789Z,62.90
2019-01-31T12:40:30.829Z,63.30
2019-01-31T12:43:00.915Z,65.03
2019-01-31T12:45:30.976Z,61.30
2019-01-31T12:48:00.994Z,61.07
2019-01-31T12:50:31.115Z,57.90
2019-01-31T12:53:01.333Z,65.20
2019-01-31T12:55:31.487Z,59.03
2019-01-31T12:58:01.844Z,64.20
2019-01-31T13:00:31.900Z,60.93
2019-01-31T13:03:02.017Z,59.13
2019-01-31T13:05:32.112Z,55.93
2019-01-31T13:08:02.112Z,63.23
2019-01-31T13:10:32.148Z,62.23
2019-01-31T13:13:02.291Z,58.07
2019-01-31T13:15:32.488Z,65.00
2019-01-31T13:18:02.720Z,58.97
2019-01-31T13:20:32.808Z,60.43
2019-01-31T13:23:02.860Z,57.37
2019-01-31T13:25:32.903Z,56.80
2019-01-31T13:28:02.989Z,57.20
2019-01-31T13:30:33.162Z,55.73
2019-01-31T13:33:05.334Z,55.90
2019-01-31T13:35:35.493Z,58.97
2019-01-31T13:38:05.966Z,58.63
2019-01-31T13:40:36.108Z,54.87
2019-01-31T13:43:06.203Z,59.43
2019-01-31T13:45:38.686Z,50.03
2019-01-31T13:48:13.624Z,56.63
2019-01-31T13:50:43.807Z,52.20
2019-01-31T13:53:14.161Z,53.53
2019-01-31T13:55:44.687Z,58.40
2019-01-31T13:58:14.722Z,60.80
2019-01-31T14:00:45.007Z,58.00
2019-01-31T14:03:15.036Z,61.60
2019-01-31T14:05:45.203Z,56.50
2019-01-31T14:08:15.399Z,61.10
2019-01-31T14:10:45.893Z,58.80
2019-01-31T14:13:15.968Z,58.80
2019-01-31T14:15:57.335Z,60.27
2019-01-31T14:18:28.269Z,61.33
2019-01-31T14:20:58.857Z,57.30
2019-01-31T14:23:29.304Z,59.07
2019-01-31T14:25:59.642Z,56.90
2019-01-31T14:28:30.175Z,64.50
2019-01-31T14:31:00.466Z,62.40
2019-01-31T14:33:31.317Z,59.70
2019-01-31T14:36:02.655Z,55.73
2019-01-31T14:38:32.736Z,59.57
2019-01-31T14:41:02.862Z,60.00
2019-01-31T14:43:33.337Z,59.33
2019-01-31T14:46:03.499Z,54.37
2019-01-31T14:48:33.643Z,60.90
2019-01-31T14:51:03.988Z,55.13
2019-01-31T14:53:34.056Z,67.73
2019-01-31T14:56:04.223Z,64.43
2019-01-31T14:58:34.283Z,60.40
2019-01-31T15:01:04.499Z,61.20
2019-01-31T15:03:34.551Z,62.43
2019-01-31T15:06:04.762Z,64.67
2019-01-31T15:08:35.377Z,61.70
2019-01-31T15:11:05.526Z,69.97
2019-01-31T15:13:35.584Z,69.97
2019-01-31T15:16:06.031Z,56.07
2019-01-31T15:18:36.097Z,60.00
2019-01-31T15:21:06.117Z,62.83
2019-01-31T15:23:36.134Z,65.07
2019-01-31T15:26:06.185Z,61.13
2019-01-31T15:28:36.227Z,64.67
2019-01-31T15:31:06.320Z,68.97
2019-01-31T15:33:36.406Z,60.87
2019-01-31T15:36:07.929Z,72.93
2019-01-31T15:38:38.070Z,72.30
2019-01-31T15:41:08.124Z,65.37
2019-01-31T15:43:38.309Z,65.27
2019-01-31T15:46:08.346Z,70.53
2019-01-31T15:48:38.872Z,69.53
2019-01-31T15:51:08.928Z,78.07
2019-01-31T15:53:39.141Z,75.60
2019-01-31T15:56:09.720Z,78.40
2019-01-31T15:58:40.140Z,66.03
2019-01-31T16:01:12.643Z,66.37
2019-01-31T16:03:43.266Z,76.97
2019-01-31T16:06:13.303Z,70.33
2019-01-31T16:08:43.358Z,69.60
2019-01-31T16:11:13.425Z,73.07
2019-01-31T16:13:43.923Z,67.97
2019-01-31T16:16:13.988Z,64.67
2019-01-31T16:18:44.093Z,64.10
2019-01-31T16:21:14.154Z,73.43
2019-01-31T16:23:45.022Z,60.97
2019-01-31T16:26:15.159Z,71.37
2019-01-31T16:28:45.357Z,68.53
2019-01-31T16:31:15.394Z,65.17
2019-01-31T16:33:46.139Z,58.37
2019-01-31T16:36:16.199Z,67.10
2019-01-31T16:38:46.304Z,70.73
2019-01-31T16:41:17.408Z,66.50
2019-01-31T16:43:47.998Z,60.67
2019-01-31T16:46:18.130Z,62.67
2019-01-31T16:48:48.169Z,64.97
2019-01-31T16:51:18.194Z,61.27
2019-01-31T16:53:48.373Z,65.63
2019-01-31T16:56:18.485Z,70.97
2019-01-31T16:58:48.808Z,62.13
2019-01-31T17:01:18.859Z,62.73
2019-01-31T17:03:49.769Z,61.57
2019-01-31T17:06:20.113Z,59.77
2019-01-31T17:08:55.089Z,57.97
2019-01-31T17:11:26.603Z,61.13
2019-01-31T17:13:59.975Z,56.03
2019-01-31T17:16:37.832Z,63.93
2019-01-31T17:19:16.573Z,57.27
2019-01-31T17:21:53.532Z,54.77
2019-01-31T17:24:50.026Z,62.23
2019-01-31T17:27:20.650Z,62.07
2019-01-31T17:29:51.078Z,55.73
2019-01-31T17:32:21.148Z,56.03
2019-01-31T17:34:51.302Z,61.47
2019-01-31T17:37:21.594Z,65.13
2019-01-31T17:39:51.690Z,64.67
2019-01-31T17:42:21.810Z,66.83
2019-01-31T17:44:51.995Z,64.50
2019-01-31T17:47:22.091Z,65.93
2019-01-31T17:49:52.213Z,67.00
2019-01-31T17:52:22.836Z,66.73
2019-01-31T17:54:55.944Z,81.77
2019-01-31T17:57:25.288Z,76.67
2019-01-31T17:59:55.658Z,74.10
2019-01-31T18:02:25.821Z,69.93
2019-01-31T18:04:55.941Z,70.90
2019-01-31T18:07:26.115Z,74.27
2019-01-31T18:09:56.502Z,69.23
2019-01-31T18:12:28.337Z,68.93
2019-01-31T18:14:58.525Z,69.63
2019-01-31T18:17:28.672Z,72.87
2019-01-31T18:19:59.998Z,67.87
2019-01-31T18:22:30.212Z,71.63
2019-01-31T18:25:00.459Z,73.87
2019-01-31T18:27:30.660Z,68.80
2019-01-31T18:30:00.845Z,73.17
2019-01-31T18:32:32.367Z,72.60
2019-01-31T18:35:02.516Z,71.00
2019-01-31T18:37:32.700Z,82.77
2019-01-31T18:40:03.556Z,76.67
2019-01-31T18:42:34.182Z,81.50
2019-01-31T18:45:05.242Z,80.10
2019-01-31T18:47:38.742Z,78.23
2019-01-31T18:50:12.832Z,80.57
2019-01-31T18:52:47.246Z,79.97
2019-01-31T18:55:22.084Z,81.40
2019-01-31T18:57:54.032Z,75.23
2019-01-31T19:00:33.719Z,84.23
2019-01-31T19:03:07.621Z,79.63
2019-01-31T19:05:38.434Z,84.13
2019-01-31T19:08:15.788Z,78.97
2019-01-31T19:10:48.636Z,81.33
2019-01-31T19:13:22.511Z,86.53
2019-01-31T19:16:04.780Z,84.97
2019-01-31T19:18:36.824Z,84.73
2019-01-31T19:21:11.865Z,85.27
2019-01-31T19:23:51.530Z,90.27
2019-01-31T19:26:27.087Z,85.13
2019-01-31T19:29:00.793Z,89.33
2019-01-31T19:31:40.483Z,80.43
2019-01-31T19:34:10.731Z,89.23
2019-01-31T19:36:41.836Z,87.97
2019-01-31T19:39:17.868Z,87.60
2019-01-31T19:41:48.221Z,85.50
2019-01-31T19:44:29.170Z,81.13
2019-01-31T19:47:09.486Z,83.40
2019-01-31T19:49:55.410Z,83.50
2019-01-31T19:52:39.623Z,90.07
2019-01-31T19:55:19.043Z,86.27
2019-01-31T19:58:00.323Z,83.90
2019-01-31T20:00:44.056Z,85.20
2019-01-31T20:03:27.975Z,87.23
2019-01-31T20:06:08.235Z,90.40
2019-01-31T20:08:47.300Z,83.37
2019-01-31T20:11:28.312Z,83.63
2019-01-31T20:14:07.159Z,89.50
2019-01-31T20:17:04.429Z,84.30
2019-01-31T20:19:43.477Z,85.60
2019-01-31T20:22:22.454Z,87.80
2019-01-31T20:24:54.869Z,83.00
2019-01-31T20:27:32.361Z,86.17
2019-01-31T20:30:03.178Z,86.63
2019-01-31T20:32:33.316Z,85.43
2019-01-31T20:35:04.487Z,91.97
2019-01-31T20:37:34.675Z,88.37
2019-01-31T20:40:06.925Z,88.67
2019-01-31T20:54:14.030Z,97.80
2019-01-31T20:56:44.118Z,86.50
2019-01-31T20:59:14.195Z,88.33
2019-01-31T21:01:44.433Z,94.20
2019-01-31T21:04:14.576Z,90.93
2019-01-31T21:06:45.075Z,94.23
2019-01-31T21:09:15.170Z,93.73
2019-01-31T21:11:45.395Z,87.00
2019-01-31T21:14:15.679Z,94.40
2019-01-31T21:16:51.743Z,91.60
2019-01-31T21:19:18.127Z,96.57
2019-01-31T21:21:48.220Z,86.90
2019-01-31T21:24:18.499Z,85.23
2019-01-31T21:26:48.683Z,91.83
2019-01-31T21:29:18.910Z,90.50
2019-01-31T21:31:57.196Z,99.80
2019-01-31T21:34:28.188Z,84.97
2019-01-31T21:36:58.293Z,91.63
2019-01-31T21:39:28.349Z,88.83
2019-01-31T21:41:58.410Z,90.53
2019-01-31T21:44:28.471Z,90.30
2019-01-31T21:47:03.308Z,84.50
2019-01-31T21:49:30.407Z,91.10
2019-01-31T21:52:00.502Z,96.87
2019-01-31T21:54:30.720Z,95.80
2019-01-31T21:57:00.772Z,91.10
2019-01-31T21:59:30.847Z,93.43
2019-01-31T22:02:00.943Z,96.90
2019-01-31T22:04:33.444Z,90.10
2019-01-31T22:07:03.532Z,90.33
2019-01-31T22:09:33.694Z,89.07
2019-01-31T22:12:03.764Z,91.93
2019-01-31T22:14:33.788Z,91.53
2019-01-31T22:17:13.891Z,90.67
2019-01-31T22:19:35.637Z,93.57
2019-01-31T22:22:05.878Z,85.97
2019-01-31T22:24:35.955Z,95.27
2019-01-31T22:27:05.997Z,88.17
2019-01-31T22:29:36.083Z,86.93
2019-01-31T22:32:06.152Z,86.03
2019-01-31T22:34:36.491Z,87.27
2019-01-31T22:37:06.614Z,91.00
2019-01-31T22:39:36.765Z,83.40
2019-01-31T22:42:06.810Z,93.00
2019-01-31T22:44:36.964Z,93.33
2019-01-31T22:47:07.001Z,90.90
2019-01-31T22:49:37.101Z,92.00
2019-01-31T22:52:07.161Z,95.20
2019-01-31T22:54:37.397Z,91.87
2019-01-31T22:57:07.478Z,96.13
2019-01-31T22:59:37.592Z,88.73
2019-01-31T23:02:11.357Z,93.43
2019-01-31T23:04:41.472Z,90.23
2019-01-31T23:07:11.533Z,93.53
2019-01-31T23:09:42.510Z,95.67
2019-01-31T23:12:12.581Z,95.47
2019-01-31T23:14:42.646Z,90.23
2019-01-31T23:17:12.955Z,91.70
2019-01-31T23:19:43.174Z,89.10
2019-01-31T23:22:13.247Z,99.17
2019-01-31T23:24:43.855Z,93.77
2019-01-31T23:27:13.901Z,96.40
2019-01-31T23:29:44.391Z,101.23
2019-01-31T23:32:14.476Z,96.33
2019-01-31T23:34:45.457Z,96.97
2019-01-31T23:37:15.568Z,95.57
2019-01-31T23:39:45.825Z,106.60
2019-01-31T23:42:15.893Z,93.87
2019-01-31T23:44:46.024Z,92.10
2019-01-31T23:47:16.204Z,93.07
2019-01-31T23:49:46.656Z,89.50
2019-01-31T23:52:17.041Z,94.27
2019-01-31T23:54:47.125Z,88.97
2019-01-31T23:57:17.290Z,91.43
2019-01-31T23:59:47.350Z,90.60
